Time;durP1;ratioP1;P1;durP2;ratioP2;P2;SDS_P1;SDS_P2;PMS_P1;PMS_P2;Temp;Humidity;BMP_temperature;BMP_pressure;BME280_temperature;BME280_humidity;BME280_pressure;Samples;Min_cycle;Max_cycle;Signal;HPM_P1;HPM_P2
2023/05/15 00:01:23;;;;;;;5.10;4.60;;;;;;;;;;5077047;28;20321;-65
2023/05/15 00:03:51;;;;;;;5.53;4.93;;;;;;;;;;5077037;28;20217;-66
2023/05/15 00:06:19;;;;;;;5.13;4.63;;;;;;;;;;5077334;28;20723;-65
2023/05/15 00:08:47;;;;;;;5.00;4.60;;;;;;;;;;5078677;28;20258;-66
2023/05/15 00:11:14;;;;;;;6.90;5.60;;;;;;;;;;5080654;28;20265;-65
2023/05/15 00:13:43;;;;;;;6.53;5.63;;;;;;;;;;5080420;28;20667;-65
2023/05/15 00:16:11;;;;;;;8.40;6.30;;;;;;;;;;5080493;28;20234;-66
2023/05/15 00:18:39;;;;;;;7.80;6.50;;;;;;;;;;5080770;28;20202;-65
2023/05/15 00:21:07;;;;;;;9.13;6.77;;;;;;;;;;5080548;28;20217;-65
2023/05/15 00:23:34;;;;;;;9.40;6.60;;;;;;;;;;5080613;28;20206;-65
2023/05/15 00:26:02;;;;;;;9.90;7.03;;;;;;;;;;5080325;28;20246;-65
2023/05/15 00:28:30;;;;;;;11.03;7.30;;;;;;;;;;5080075;28;20245;-66
2023/05/15 00:30:59;;;;;;;8.83;6.63;;;;;;;;;;5080416;28;20205;-65
2023/05/15 00:33:27;;;;;;;8.30;7.47;;;;;;;;;;5080284;28;20206;-65
2023/05/15 00:35:54;;;;;;;7.73;6.53;;;;;;;;;;5080478;28;20226;-65
2023/05/15 00:38:22;;;;;;;8.23;7.20;;;;;;;;;;5077202;28;20249;-65
2023/05/15 00:40:51;;;;;;;8.97;7.23;;;;;;;;;;5071792;28;20202;-66
2023/05/15 00:43:19;;;;;;;10.37;7.27;;;;;;;;;;5080276;28;20210;-66
2023/05/15 00:45:47;;;;;;;9.53;7.07;;;;;;;;;;5080180;28;20276;-65
2023/05/15 00:48:16;;;;;;;9.67;7.13;;;;;;;;;;5080118;28;20229;-65
2023/05/15 00:50:44;;;;;;;12.13;7.30;;;;;;;;;;5080391;28;20646;-65
2023/05/15 00:53:12;;;;;;;10.07;8.20;;;;;;;;;;5080166;28;20210;-65
2023/05/15 00:55:40;;;;;;;8.63;7.47;;;;;;;;;;5079786;28;20259;-65
2023/05/15 00:58:09;;;;;;;10.00;7.67;;;;;;;;;;5079516;28;20213;-65
2023/05/15 01:00:37;;;;;;;8.37;7.47;;;;;;;;;;5079806;28;20234;-65
2023/05/15 01:03:05;;;;;;;10.73;8.27;;;;;;;;;;5079945;28;20692;-65
2023/05/15 01:05:34;;;;;;;9.90;8.00;;;;;;;;;;5079783;28;20256;-65
2023/05/15 01:08:06;;;;;;;9.53;8.13;;;;;;;;;;5079711;28;20287;-65
2023/05/15 01:10:34;;;;;;;10.13;8.70;;;;;;;;;;5079690;28;20238;-65
2023/05/15 01:13:02;;;;;;;11.30;8.30;;;;;;;;;;5079375;28;20210;-66
2023/05/15 01:15:30;;;;;;;12.30;8.60;;;;;;;;;;5068657;28;20624;-65
2023/05/15 01:17:58;;;;;;;8.93;7.33;;;;;;;;;;5079436;28;20202;-65
2023/05/15 01:20:26;;;;;;;10.30;8.87;;;;;;;;;;5079457;28;20214;-65
2023/05/15 01:23:09;;;;;;;9.73;7.80;;;;;;;;;;5079451;28;20259;-65
2023/05/15 01:25:47;;;;;;;10.40;8.10;;;;;;;;;;5078170;28;20261;-65
2023/05/15 01:28:19;;;;;;;10.17;8.23;;;;;;;;;;5079140;28;20226;-65
2023/05/15 01:30:48;;;;;;;12.80;8.40;;;;;;;;;;5078992;28;20255;-66
2023/05/15 01:33:18;;;;;;;12.30;8.53;;;;;;;;;;5079184;28;20214;-66
2023/05/15 01:35:48;;;;;;;12.87;8.97;;;;;;;;;;5078958;28;20222;-66
2023/05/15 01:38:19;;;;;;;9.60;8.53;;;;;;;;;;5079148;28;20662;-66
2023/05/15 01:40:47;;;;;;;11.63;8.73;;;;;;;;;;5078776;28;20240;-65
2023/05/15 01:43:17;;;;;;;11.63;8.83;;;;;;;;;;5072031;28;20260;-64
2023/05/15 01:45:46;;;;;;;15.80;9.73;;;;;;;;;;5078632;28;20364;-64
2023/05/15 01:48:15;;;;;;;9.67;8.17;;;;;;;;;;5078941;28;20226;-65
2023/05/15 01:50:43;;;;;;;13.20;9.43;;;;;;;;;;5078627;28;20256;-65
2023/05/15 01:53:11;;;;;;;12.47;8.50;;;;;;;;;;5078687;28;20210;-64
2023/05/15 01:55:40;;;;;;;11.40;8.23;;;;;;;;;;5078751;28;20230;-65
2023/05/15 01:58:08;;;;;;;13.07;8.53;;;;;;;;;;5078551;28;20568;-64
2023/05/15 02:00:37;;;;;;;13.47;9.00;;;;;;;;;;5078284;28;20249;-64
2023/05/15 02:03:06;;;;;;;11.30;8.20;;;;;;;;;;5078768;28;20210;-65
2023/05/15 02:05:34;;;;;;;11.60;8.57;;;;;;;;;;5078299;28;20638;-66
2023/05/15 02:08:03;;;;;;;12.20;8.47;;;;;;;;;;5078391;28;20324;-66
2023/05/15 02:10:32;;;;;;;10.97;8.80;;;;;;;;;;5078416;28;20254;-66
2023/05/15 02:13:00;;;;;;;12.17;7.97;;;;;;;;;;5077796;28;20256;-65
2023/05/15 02:15:28;;;;;;;14.53;9.10;;;;;;;;;;5078447;28;20574;-65
2023/05/15 02:17:56;;;;;;;10.67;8.47;;;;;;;;;;5078457;28;20206;-66
2023/05/15 02:20:25;;;;;;;12.00;8.40;;;;;;;;;;5078566;28;20233;-66
2023/05/15 02:22:53;;;;;;;10.93;8.40;;;;;;;;;;5076798;28;20206;-66
2023/05/15 02:25:28;;;;;;;10.20;8.90;;;;;;;;;;5066723;28;20240;-66
2023/05/15 02:27:59;;;;;;;10.70;8.80;;;;;;;;;;5069773;28;20194;-66
2023/05/15 02:30:34;;;;;;;15.87;9.07;;;;;;;;;;5071553;28;20237;-66
2023/05/15 02:33:06;;;;;;;12.23;8.33;;;;;;;;;;5069942;28;20205;-65
2023/05/15 02:35:37;;;;;;;9.90;8.73;;;;;;;;;;5075242;28;20309;-65
2023/05/15 02:38:07;;;;;;;12.10;8.93;;;;;;;;;;5067339;28;20285;-64
2023/05/15 02:40:36;;;;;;;11.83;8.67;;;;;;;;;;5066341;28;20313;-65
2023/05/15 02:43:04;;;;;;;10.50;9.10;;;;;;;;;;5075101;28;20199;-64
2023/05/15 02:45:32;;;;;;;12.87;9.57;;;;;;;;;;5066886;28;20843;-64
2023/05/15 02:48:01;;;;;;;13.43;9.07;;;;;;;;;;5076928;28;20194;-65
2023/05/15 02:50:29;;;;;;;11.47;8.70;;;;;;;;;;5071135;28;20221;-65
2023/05/15 02:53:03;;;;;;;13.87;9.07;;;;;;;;;;5075910;28;20234;-66
2023/05/15 02:55:31;;;;;;;13.77;9.30;;;;;;;;;;5075845;28;20240;-65
2023/05/15 02:57:58;;;;;;;11.73;8.67;;;;;;;;;;5067840;28;20207;-66
2023/05/15 03:00:26;;;;;;;11.13;9.03;;;;;;;;;;5076177;28;20225;-64
2023/05/15 03:02:54;;;;;;;12.33;9.53;;;;;;;;;;5068421;28;20203;-63
2023/05/15 03:05:22;;;;;;;12.37;9.20;;;;;;;;;;5067387;28;20215;-64
2023/05/15 03:07:50;;;;;;;15.90;9.07;;;;;;;;;;5064822;28;20213;-66
2023/05/15 03:10:22;;;;;;;11.80;9.57;;;;;;;;;;5077703;28;20233;-65
2023/05/15 03:12:50;;;;;;;11.23;9.30;;;;;;;;;;5074944;28;20206;-65
2023/05/15 03:15:18;;;;;;;11.63;8.57;;;;;;;;;;5069935;28;20300;-64
2023/05/15 03:17:45;;;;;;;13.27;9.77;;;;;;;;;;5077811;28;20202;-66
2023/05/15 03:20:14;;;;;;;12.03;8.90;;;;;;;;;;5077557;28;20199;-66
2023/05/15 03:22:41;;;;;;;14.90;10.47;;;;;;;;;;5077557;28;20195;-66
2023/05/15 03:25:10;;;;;;;12.00;9.50;;;;;;;;;;5077465;28;20226;-65
2023/05/15 03:27:39;;;;;;;12.37;9.57;;;;;;;;;;5076867;28;20229;-65
2023/05/15 03:30:07;;;;;;;12.23;8.90;;;;;;;;;;5077016;28;20253;-64
2023/05/15 03:32:35;;;;;;;12.73;9.43;;;;;;;;;;5077421;28;20239;-66
2023/05/15 03:35:03;;;;;;;13.70;11.20;;;;;;;;;;5077006;28;20631;-65
2023/05/15 03:37:31;;;;;;;13.43;10.00;;;;;;;;;;5072880;28;20688;-64
2023/05/15 03:39:59;;;;;;;11.83;9.77;;;;;;;;;;5077312;28;20194;-66
2023/05/15 03:42:26;;;;;;;11.97;9.50;;;;;;;;;;5076960;28;20696;-64
2023/05/15 03:44:56;;;;;;;12.67;8.97;;;;;;;;;;5080257;28;20241;-66
2023/05/15 03:47:23;;;;;;;12.47;9.73;;;;;;;;;;5081361;28;20238;-64
2023/05/15 03:49:51;;;;;;;13.03;9.90;;;;;;;;;;5080871;28;20588;-65
2023/05/15 03:52:19;;;;;;;12.20;10.70;;;;;;;;;;5080970;28;20234;-64
2023/05/15 03:54:46;;;;;;;12.90;9.83;;;;;;;;;;5081044;28;20210;-64
2023/05/15 03:57:14;;;;;;;14.77;10.27;;;;;;;;;;5081033;28;20237;-63
2023/05/15 03:59:42;;;;;;;13.23;10.30;;;;;;;;;;5080851;28;20255;-65
2023/05/15 04:02:11;;;;;;;12.37;9.80;;;;;;;;;;5080601;28;20266;-65
2023/05/15 04:04:38;;;;;;;12.10;9.70;;;;;;;;;;5081092;28;20709;-65
2023/05/15 04:07:06;;;;;;;12.07;9.87;;;;;;;;;;5080749;28;20229;-65
2023/05/15 04:09:34;;;;;;;14.87;10.63;;;;;;;;;;5080637;28;20233;-65
2023/05/15 04:12:02;;;;;;;13.07;10.27;;;;;;;;;;5080460;28;20210;-65
2023/05/15 04:14:29;;;;;;;13.47;10.73;;;;;;;;;;5080892;28;20206;-65
2023/05/15 04:16:57;;;;;;;15.03;11.17;;;;;;;;;;5080777;28;20279;-65
2023/05/15 04:19:26;;;;;;;14.63;11.13;;;;;;;;;;5080113;28;20210;-65
2023/05/15 04:21:54;;;;;;;14.10;9.97;;;;;;;;;;5080047;28;20234;-64
2023/05/15 04:24:22;;;;;;;13.70;11.50;;;;;;;;;;5080101;28;20210;-64
2023/05/15 04:26:49;;;;;;;14.33;11.47;;;;;;;;;;5079720;28;20619;-64
2023/05/15 04:29:17;;;;;;;13.63;11.30;;;;;;;;;;5080327;28;20565;-65
2023/05/15 04:31:45;;;;;;;18.30;11.73;;;;;;;;;;5080551;28;20202;-63
2023/05/15 04:34:12;;;;;;;19.67;13.30;;;;;;;;;;5080203;28;20206;-65
2023/05/15 04:36:42;;;;;;;16.27;11.30;;;;;;;;;;5080318;28;20226;-64
2023/05/15 04:39:09;;;;;;;14.50;11.23;;;;;;;;;;5080380;28;20236;-65
2023/05/15 04:41:37;;;;;;;15.33;10.93;;;;;;;;;;5079468;28;20228;-65
2023/05/15 04:44:05;;;;;;;17.77;12.63;;;;;;;;;;5072433;28;20233;-65
2023/05/15 04:46:36;;;;;;;14.60;12.00;;;;;;;;;;5079487;28;20269;-65
2023/05/15 04:49:04;;;;;;;13.83;11.13;;;;;;;;;;5079877;28;20207;-66
2023/05/15 04:51:32;;;;;;;15.07;10.83;;;;;;;;;;5080015;28;20237;-65
2023/05/15 04:54:01;;;;;;;16.43;11.47;;;;;;;;;;5079784;28;20214;-65
2023/05/15 04:56:29;;;;;;;13.03;10.50;;;;;;;;;;5079704;28;20233;-65
2023/05/15 04:58:56;;;;;;;16.23;12.07;;;;;;;;;;5079957;28;20205;-65
2023/05/15 05:01:24;;;;;;;13.13;11.30;;;;;;;;;;5079679;28;20230;-65
2023/05/15 05:03:52;;;;;;;13.60;11.27;;;;;;;;;;5077374;28;20672;-65
2023/05/15 05:06:20;;;;;;;15.63;10.37;;;;;;;;;;5071787;28;20317;-65
2023/05/15 05:08:48;;;;;;;12.10;10.73;;;;;;;;;;5079523;28;20206;-65
2023/05/15 05:11:17;;;;;;;13.30;10.10;;;;;;;;;;5079374;28;20225;-65
2023/05/15 05:13:44;;;;;;;14.27;11.07;;;;;;;;;;5079787;28;20230;-65
2023/05/15 05:16:12;;;;;;;15.20;11.10;;;;;;;;;;5079518;28;20279;-65
2023/05/15 05:18:40;;;;;;;13.83;9.97;;;;;;;;;;5079658;28;20263;-64
2023/05/15 05:21:07;;;;;;;13.20;9.87;;;;;;;;;;5073074;28;20678;-64
2023/05/15 05:23:35;;;;;;;14.20;10.63;;;;;;;;;;5078034;28;20236;-66
2023/05/15 05:26:03;;;;;;;13.80;10.63;;;;;;;;;;5073825;28;20697;-64
2023/05/15 05:28:34;;;;;;;16.33;10.53;;;;;;;;;;5066083;28;20203;-63
2023/05/15 05:31:02;;;;;;;12.20;9.87;;;;;;;;;;5077695;28;20221;-65
2023/05/15 05:33:30;;;;;;;16.43;10.60;;;;;;;;;;5073889;28;20210;-65
2023/05/15 05:35:57;;;;;;;18.27;11.97;;;;;;;;;;5077990;28;20221;-64
2023/05/15 05:38:26;;;;;;;15.90;11.83;;;;;;;;;;5074866;28;20194;-65
2023/05/15 05:40:54;;;;;;;15.93;11.73;;;;;;;;;;5071301;28;20198;-65
2023/05/15 05:43:21;;;;;;;23.47;12.07;;;;;;;;;;5073309;28;20199;-64
2023/05/15 05:45:50;;;;;;;14.10;10.87;;;;;;;;;;5075502;28;20253;-65
2023/05/15 05:48:18;;;;;;;17.83;11.93;;;;;;;;;;5073139;28;20666;-62
2023/05/15 05:50:46;;;;;;;22.80;13.03;;;;;;;;;;5070142;28;20218;-62
2023/05/15 05:53:13;;;;;;;18.23;11.77;;;;;;;;;;5068743;28;20202;-62
2023/05/15 05:55:41;;;;;;;15.40;11.93;;;;;;;;;;5071494;28;20248;-62
2023/05/15 05:58:09;;;;;;;20.00;12.70;;;;;;;;;;5074770;28;20203;-62
2023/05/15 06:00:52;;;;;;;16.57;11.73;;;;;;;;;;5068141;28;20240;-62
2023/05/15 06:03:20;;;;;;;20.07;12.60;;;;;;;;;;5069587;28;20204;-62
2023/05/15 06:05:48;;;;;;;19.27;12.17;;;;;;;;;;5076276;28;20221;-62
2023/05/15 06:08:16;;;;;;;15.67;12.00;;;;;;;;;;5072841;28;20237;-62
2023/05/15 06:10:44;;;;;;;17.10;11.67;;;;;;;;;;5072751;28;20229;-62
2023/05/15 06:13:13;;;;;;;17.67;12.90;;;;;;;;;;5075696;28;20296;-62
2023/05/15 06:15:41;;;;;;;15.80;12.10;;;;;;;;;;5067506;28;20218;-62
2023/05/15 06:18:10;;;;;;;16.00;11.30;;;;;;;;;;5069492;28;20570;-62
2023/05/15 06:20:38;;;;;;;16.27;11.70;;;;;;;;;;5073203;28;20285;-62
2023/05/15 06:23:06;;;;;;;15.47;12.57;;;;;;;;;;5073003;28;20207;-62
2023/05/15 06:25:34;;;;;;;13.00;11.63;;;;;;;;;;5075946;28;20693;-62
2023/05/15 06:28:01;;;;;;;15.73;11.80;;;;;;;;;;5075841;28;20234;-62
2023/05/15 06:30:29;;;;;;;17.47;12.63;;;;;;;;;;5073846;28;20202;-62
2023/05/15 06:32:57;;;;;;;17.27;11.83;;;;;;;;;;5078674;28;20214;-62
2023/05/15 06:35:26;;;;;;;17.93;12.60;;;;;;;;;;5078088;28;20233;-62
2023/05/15 06:37:54;;;;;;;15.30;11.67;;;;;;;;;;5078226;28;20206;-62
2023/05/15 06:40:24;;;;;;;17.10;12.17;;;;;;;;;;5078116;28;20232;-62
2023/05/15 06:42:52;;;;;;;19.73;12.27;;;;;;;;;;5077628;28;20635;-62
2023/05/15 06:45:20;;;;;;;15.70;11.60;;;;;;;;;;5078014;28;20237;-62
2023/05/15 06:47:47;;;;;;;19.10;12.17;;;;;;;;;;5077803;28;20616;-62
2023/05/15 06:50:15;;;;;;;18.20;12.80;;;;;;;;;;5078105;28;20268;-62
2023/05/15 06:52:44;;;;;;;14.80;12.10;;;;;;;;;;5077597;28;20230;-62
2023/05/15 06:55:12;;;;;;;16.23;11.53;;;;;;;;;;5077768;28;20218;-62
2023/05/15 06:57:40;;;;;;;18.30;12.03;;;;;;;;;;5066305;28;20202;-61
2023/05/15 07:00:08;;;;;;;18.63;11.90;;;;;;;;;;5077698;28;20210;-62
2023/05/15 07:02:36;;;;;;;16.93;12.50;;;;;;;;;;5077849;28;20206;-62
2023/05/15 07:05:05;;;;;;;23.00;12.77;;;;;;;;;;5077378;28;20194;-62
2023/05/15 07:07:33;;;;;;;16.03;11.43;;;;;;;;;;5077463;28;20229;-62
2023/05/15 07:10:02;;;;;;;16.63;12.20;;;;;;;;;;5077304;28;20243;-62
2023/05/15 07:12:31;;;;;;;18.87;12.83;;;;;;;;;;5077318;28;20230;-62
2023/05/15 07:14:59;;;;;;;16.57;12.13;;;;;;;;;;5077750;28;20672;-62
2023/05/15 07:17:26;;;;;;;20.20;12.77;;;;;;;;;;5079008;28;20233;-64
2023/05/15 07:19:54;;;;;;;16.97;11.73;;;;;;;;;;5081958;28;20202;-62
2023/05/15 07:22:22;;;;;;;16.57;12.50;;;;;;;;;;5081807;28;20715;-62
2023/05/15 07:24:49;;;;;;;16.57;12.60;;;;;;;;;;5081209;28;20252;-62
2023/05/15 07:27:19;;;;;;;16.97;12.07;;;;;;;;;;5080748;28;20208;-61
2023/05/15 07:29:46;;;;;;;16.47;12.00;;;;;;;;;;5081486;28;20252;-62
2023/05/15 07:32:14;;;;;;;14.00;12.17;;;;;;;;;;5081443;28;20221;-62
2023/05/15 07:34:42;;;;;;;16.80;12.17;;;;;;;;;;5081708;28;20632;-62
2023/05/15 07:37:09;;;;;;;18.77;11.57;;;;;;;;;;5081435;28;20226;-62
2023/05/15 07:39:37;;;;;;;15.70;11.80;;;;;;;;;;5081271;28;20217;-62
2023/05/15 07:42:05;;;;;;;17.40;12.23;;;;;;;;;;5081053;28;20206;-62
2023/05/15 07:44:34;;;;;;;14.73;12.23;;;;;;;;;;5081254;28;20225;-61
2023/05/15 07:47:02;;;;;;;17.70;12.17;;;;;;;;;;5081280;28;20230;-60
2023/05/15 07:49:30;;;;;;;15.50;12.07;;;;;;;;;;5080987;28;20206;-62
2023/05/15 07:51:58;;;;;;;15.50;12.27;;;;;;;;;;5080482;28;20226;-62
2023/05/15 07:54:26;;;;;;;16.23;11.90;;;;;;;;;;5077414;28;20602;-62
2023/05/15 07:56:53;;;;;;;18.00;11.67;;;;;;;;;;5080186;28;20218;-62
2023/05/15 07:59:21;;;;;;;15.60;11.73;;;;;;;;;;5080534;28;20228;-62
2023/05/15 08:01:50;;;;;;;15.13;11.43;;;;;;;;;;5080269;28;20225;-62
2023/05/15 08:04:18;;;;;;;15.17;11.07;;;;;;;;;;5080564;28;20259;-62
2023/05/15 08:06:46;;;;;;;16.00;12.10;;;;;;;;;;5077904;28;20579;-63
2023/05/15 08:09:13;;;;;;;15.30;11.87;;;;;;;;;;5080386;28;20203;-62
2023/05/15 08:11:41;;;;;;;17.30;12.80;;;;;;;;;;5078907;28;20300;-62
2023/05/15 08:14:09;;;;;;;15.67;11.93;;;;;;;;;;5080432;28;20209;-63
2023/05/15 08:16:40;;;;;;;15.73;12.17;;;;;;;;;;5080268;28;20222;-63
2023/05/15 08:19:09;;;;;;;16.83;12.77;;;;;;;;;;5080389;28;20289;-63
2023/05/15 08:21:37;;;;;;;15.73;12.60;;;;;;;;;;5080200;28;20650;-63
2023/05/15 08:24:05;;;;;;;20.17;13.60;;;;;;;;;;5080132;28;20236;-63
2023/05/15 08:26:33;;;;;;;22.00;13.43;;;;;;;;;;5079811;28;20226;-63
2023/05/15 08:29:00;;;;;;;18.03;12.97;;;;;;;;;;5079703;28;20255;-63
2023/05/15 08:31:28;;;;;;;16.47;13.37;;;;;;;;;;5080454;28;20218;-63
2023/05/15 08:33:56;;;;;;;16.37;13.37;;;;;;;;;;5080122;28;20202;-63
2023/05/15 08:36:25;;;;;;;16.93;13.10;;;;;;;;;;5080089;28;20233;-63
2023/05/15 08:38:53;;;;;;;21.07;13.83;;;;;;;;;;5079733;28;20298;-63
2023/05/15 08:41:25;;;;;;;15.53;12.63;;;;;;;;;;5079942;28;20198;-63
2023/05/15 08:44:08;;;;;;;21.33;14.73;;;;;;;;;;5078993;28;20202;-63
2023/05/15 08:46:36;;;;;;;19.00;13.33;;;;;;;;;;5078132;28;20225;-63
2023/05/15 08:49:08;;;;;;;18.93;13.73;;;;;;;;;;5078448;28;20233;-67
2023/05/15 08:51:38;;;;;;;18.73;13.83;;;;;;;;;;5076083;28;20247;-66
2023/05/15 08:54:06;;;;;;;20.30;13.83;;;;;;;;;;5079184;28;20204;-66
2023/05/15 08:56:33;;;;;;;18.40;13.47;;;;;;;;;;5078430;28;20214;-66
2023/05/15 08:59:02;;;;;;;20.10;14.13;;;;;;;;;;5077538;28;20203;-66
2023/05/15 09:01:30;;;;;;;16.90;14.00;;;;;;;;;;5075827;28;20230;-65
2023/05/15 09:03:57;;;;;;;19.73;13.90;;;;;;;;;;5078730;28;20194;-66
2023/05/15 09:06:26;;;;;;;19.30;15.53;;;;;;;;;;5078338;28;20736;-66
2023/05/15 09:08:56;;;;;;;31.07;19.17;;;;;;;;;;5078094;28;20194;-66
2023/05/15 09:11:24;;;;;;;21.20;15.43;;;;;;;;;;5077834;28;20933;-66
2023/05/15 09:13:51;;;;;;;17.13;14.10;;;;;;;;;;5074005;28;20218;-66
2023/05/15 09:16:20;;;;;;;23.03;14.27;;;;;;;;;;5081501;28;20252;-66
2023/05/15 09:18:49;;;;;;;21.00;14.20;;;;;;;;;;5077742;28;20256;-67
2023/05/15 09:21:24;;;;;;;23.73;16.30;;;;;;;;;;5078869;28;20198;-66
2023/05/15 09:23:52;;;;;;;19.53;15.27;;;;;;;;;;5078809;28;20258;-66
2023/05/15 09:26:21;;;;;;;20.80;15.10;;;;;;;;;;5075956;28;20221;-67
2023/05/15 09:28:49;;;;;;;19.10;14.63;;;;;;;;;;5078815;28;20202;-67
2023/05/15 09:31:19;;;;;;;21.67;14.23;;;;;;;;;;5079272;28;20255;-66
2023/05/15 09:33:47;;;;;;;21.87;14.37;;;;;;;;;;5079150;28;20258;-66
2023/05/15 09:36:21;;;;;;;17.03;13.83;;;;;;;;;;5079182;28;20257;-67
2023/05/15 09:38:49;;;;;;;18.40;13.87;;;;;;;;;;5078892;28;20210;-66
2023/05/15 09:41:24;;;;;;;17.73;12.70;;;;;;;;;;5077607;28;20214;-67
2023/05/15 09:43:55;;;;;;;19.70;13.93;;;;;;;;;;5075777;28;20202;-67
2023/05/15 09:46:23;;;;;;;19.27;13.17;;;;;;;;;;5079127;28;20226;-66
2023/05/15 09:48:54;;;;;;;18.27;13.10;;;;;;;;;;5078699;28;20202;-67
2023/05/15 09:51:22;;;;;;;19.27;12.30;;;;;;;;;;5078910;28;20206;-68
2023/05/15 09:53:50;;;;;;;17.40;12.83;;;;;;;;;;5078870;28;20272;-68
2023/05/15 09:56:18;;;;;;;17.97;12.90;;;;;;;;;;5078244;28;20227;-68
2023/05/15 09:58:54;;;;;;;15.47;12.63;;;;;;;;;;5076634;28;20230;-67
2023/05/15 10:01:22;;;;;;;22.27;13.80;;;;;;;;;;5077225;28;20233;-68
2023/05/15 10:03:59;;;;;;;16.40;12.43;;;;;;;;;;5078254;28;20289;-67
2023/05/15 10:06:34;;;;;;;16.20;12.77;;;;;;;;;;5077936;28;20287;-66
2023/05/15 10:09:02;;;;;;;17.00;13.47;;;;;;;;;;5065212;28;20263;-67
2023/05/15 10:11:30;;;;;;;17.00;12.00;;;;;;;;;;5077547;28;20202;-67
2023/05/15 10:13:59;;;;;;;13.67;12.27;;;;;;;;;;5077824;28;20629;-65
2023/05/15 10:16:28;;;;;;;16.57;13.03;;;;;;;;;;5078170;28;20234;-65
2023/05/15 10:18:57;;;;;;;17.13;12.43;;;;;;;;;;5077981;28;20561;-65
2023/05/15 10:21:26;;;;;;;18.30;12.23;;;;;;;;;;5077933;28;20234;-66
2023/05/15 10:23:54;;;;;;;17.30;12.60;;;;;;;;;;5078018;28;20617;-65
2023/05/15 10:26:23;;;;;;;17.87;12.20;;;;;;;;;;5075859;28;20286;-66
2023/05/15 10:28:51;;;;;;;14.00;11.97;;;;;;;;;;5077360;28;20209;-66
2023/05/15 10:31:20;;;;;;;17.10;13.03;;;;;;;;;;5077338;28;20202;-66
2023/05/15 10:33:48;;;;;;;14.07;12.10;;;;;;;;;;5074969;28;20249;-66
2023/05/15 10:36:16;;;;;;;13.87;11.43;;;;;;;;;;5077162;28;20226;-66
2023/05/15 10:38:44;;;;;;;15.30;11.97;;;;;;;;;;5077474;28;20202;-66
2023/05/15 10:41:13;;;;;;;17.53;12.23;;;;;;;;;;5077133;28;20198;-66
2023/05/15 10:43:44;;;;;;;17.77;13.53;;;;;;;;;;5079160;28;20230;-65
2023/05/15 10:46:13;;;;;;;14.23;12.17;;;;;;;;;;5077200;28;20221;-66
2023/05/15 10:48:42;;;;;;;17.93;12.50;;;;;;;;;;5077311;28;20226;-66
2023/05/15 10:51:14;;;;;;;15.53;12.00;;;;;;;;;;5074528;28;20252;-66
2023/05/15 10:53:42;;;;;;;15.53;12.60;;;;;;;;;;5073224;28;20226;-66
2023/05/15 10:56:12;;;;;;;20.13;12.67;;;;;;;;;;5076634;28;20240;-66
2023/05/15 10:58:45;;;;;;;16.17;11.93;;;;;;;;;;5074927;28;20300;-66
2023/05/15 11:01:24;;;;;;;13.43;10.90;;;;;;;;;;5076600;28;20287;-66
2023/05/15 11:04:06;;;;;;;13.77;11.47;;;;;;;;;;5077234;28;20198;-66
2023/05/15 11:06:34;;;;;;;19.37;11.83;;;;;;;;;;5074819;28;20264;-66
2023/05/15 11:09:20;;;;;;;16.20;10.80;;;;;;;;;;5077474;28;20206;-67
2023/05/15 11:11:55;;;;;;;14.43;9.97;;;;;;;;;;5077107;28;20266;-67
2023/05/15 11:14:24;;;;;;;14.60;9.07;;;;;;;;;;5077363;28;20257;-66
2023/05/15 11:17:03;;;;;;;13.23;9.57;;;;;;;;;;5077404;28;20284;-65
2023/05/15 11:19:36;;;;;;;10.23;8.90;;;;;;;;;;5064164;28;20210;-65
2023/05/15 11:22:15;;;;;;;9.50;8.50;;;;;;;;;;5077364;28;20210;-65
2023/05/15 11:24:51;;;;;;;10.93;8.30;;;;;;;;;;5077433;28;20233;-65
2023/05/15 11:27:19;;;;;;;10.47;8.27;;;;;;;;;;5076589;28;20206;-65
2023/05/15 11:30:06;;;;;;;13.63;8.40;;;;;;;;;;5077334;28;20285;-66
2023/05/15 11:32:41;;;;;;;12.83;8.67;;;;;;;;;;5076571;28;20206;-66
2023/05/15 11:35:11;;;;;;;11.90;8.87;;;;;;;;;;5074633;28;20256;-66
2023/05/15 11:37:41;;;;;;;13.20;9.27;;;;;;;;;;5077276;28;20269;-66
2023/05/15 11:40:13;;;;;;;15.70;8.80;;;;;;;;;;5077192;28;20202;-66
2023/05/15 11:42:41;;;;;;;14.47;10.10;;;;;;;;;;5076983;28;20202;-66
2023/05/15 11:45:09;;;;;;;11.60;9.37;;;;;;;;;;5076983;28;20696;-66
2023/05/15 11:47:37;;;;;;;9.70;8.70;;;;;;;;;;5077050;28;20210;-65
2023/05/15 11:50:06;;;;;;;11.70;7.93;;;;;;;;;;5077048;28;20249;-66
2023/05/15 11:52:35;;;;;;;9.13;7.53;;;;;;;;;;5077201;28;20210;-67
2023/05/15 11:55:03;;;;;;;12.07;8.37;;;;;;;;;;5076781;28;20618;-66
2023/05/15 11:57:31;;;;;;;9.27;7.63;;;;;;;;;;5076785;28;20211;-67
2023/05/15 11:59:59;;;;;;;12.23;8.67;;;;;;;;;;5076537;28;20202;-65
2023/05/15 12:02:27;;;;;;;11.53;8.50;;;;;;;;;;5077043;28;20210;-67
2023/05/15 12:04:55;;;;;;;9.53;8.53;;;;;;;;;;5078806;28;20206;-67
2023/05/15 12:07:23;;;;;;;12.20;8.60;;;;;;;;;;5080693;28;20606;-66
2023/05/15 12:09:52;;;;;;;11.07;8.23;;;;;;;;;;5080391;28;20619;-67
2023/05/15 12:12:20;;;;;;;11.33;8.20;;;;;;;;;;5080135;28;20719;-66
2023/05/15 12:14:48;;;;;;;9.33;8.03;;;;;;;;;;5080342;28;20226;-66
2023/05/15 12:17:16;;;;;;;9.03;8.07;;;;;;;;;;5080537;28;20684;-66
2023/05/15 12:19:44;;;;;;;11.50;8.63;;;;;;;;;;5078633;28;20259;-64
2023/05/15 12:22:12;;;;;;;9.77;7.70;;;;;;;;;;5071271;28;20202;-64
2023/05/15 12:24:40;;;;;;;9.57;6.97;;;;;;;;;;5075239;28;20245;-62
2023/05/15 12:27:09;;;;;;;15.47;8.13;;;;;;;;;;5079320;28;20276;-63
2023/05/15 12:29:37;;;;;;;9.13;7.30;;;;;;;;;;5078940;28;20202;-64
2023/05/15 12:32:05;;;;;;;13.10;7.13;;;;;;;;;;5079825;28;20230;-64
2023/05/15 12:34:33;;;;;;;8.93;6.40;;;;;;;;;;5078609;28;20234;-63
2023/05/15 12:37:01;;;;;;;8.53;6.63;;;;;;;;;;5077589;28;20219;-64
2023/05/15 12:39:29;;;;;;;7.50;6.80;;;;;;;;;;5076906;28;20228;-64
2023/05/15 12:41:57;;;;;;;8.57;6.97;;;;;;;;;;5079118;28;20202;-64
2023/05/15 12:44:27;;;;;;;11.67;7.30;;;;;;;;;;5079494;28;20194;-65
2023/05/15 12:46:55;;;;;;;7.50;6.70;;;;;;;;;;5079421;28;20268;-61
2023/05/15 12:49:23;;;;;;;9.67;7.03;;;;;;;;;;5077298;28;20198;-65
2023/05/15 12:51:51;;;;;;;15.40;7.40;;;;;;;;;;5070976;28;20196;-64
2023/05/15 12:54:19;;;;;;;9.00;7.43;;;;;;;;;;5076482;28;20249;-66
2023/05/15 12:56:47;;;;;;;8.17;7.17;;;;;;;;;;5079339;28;20222;-66
2023/05/15 12:59:15;;;;;;;12.03;7.73;;;;;;;;;;5079560;28;20571;-65
2023/05/15 13:01:44;;;;;;;10.00;7.43;;;;;;;;;;5079638;28;20775;-68
2023/05/15 13:04:12;;;;;;;10.43;7.60;;;;;;;;;;5079607;28;20624;-67
2023/05/15 13:06:40;;;;;;;12.33;7.60;;;;;;;;;;5076336;28;20245;-68
2023/05/15 13:09:14;;;;;;;8.20;6.47;;;;;;;;;;5079043;28;20210;-68
2023/05/15 13:11:43;;;;;;;7.47;6.07;;;;;;;;;;5079309;28;20661;-67
2023/05/15 13:14:16;;;;;;;9.97;6.47;;;;;;;;;;5079573;28;20202;-69
2023/05/15 13:16:46;;;;;;;10.30;6.20;;;;;;;;;;5078942;28;20221;-68
2023/05/15 13:19:14;;;;;;;8.03;6.20;;;;;;;;;;5077095;28;20255;-67
2023/05/15 13:21:42;;;;;;;10.53;5.67;;;;;;;;;;5070140;28;20206;-68
2023/05/15 13:24:10;;;;;;;9.47;5.73;;;;;;;;;;5079190;28;20649;-67
2023/05/15 13:26:38;;;;;;;6.30;5.30;;;;;;;;;;5078936;28;20585;-67
2023/05/15 13:29:05;;;;;;;8.47;6.27;;;;;;;;;;5078963;28;20210;-67
2023/05/15 13:31:33;;;;;;;10.53;5.63;;;;;;;;;;5079376;28;20214;-67
2023/05/15 13:34:02;;;;;;;8.87;6.00;;;;;;;;;;5071112;28;20654;-68
2023/05/15 13:36:30;;;;;;;7.13;6.00;;;;;;;;;;5079169;28;20241;-68
2023/05/15 13:38:57;;;;;;;9.73;6.03;;;;;;;;;;5079175;28;20206;-67
2023/05/15 13:41:25;;;;;;;7.63;5.80;;;;;;;;;;5078791;28;20241;-68
2023/05/15 13:43:53;;;;;;;7.43;5.77;;;;;;;;;;5079023;28;20237;-67
2023/05/15 13:46:20;;;;;;;6.63;5.00;;;;;;;;;;5078845;28;20222;-69
2023/05/15 13:48:48;;;;;;;5.20;4.70;;;;;;;;;;5078659;28;20296;-69
2023/05/15 13:51:17;;;;;;;6.87;4.77;;;;;;;;;;5068283;28;20198;-68
2023/05/15 13:53:45;;;;;;;7.40;5.27;;;;;;;;;;5078995;28;20256;-67
2023/05/15 13:56:13;;;;;;;5.13;4.63;;;;;;;;;;5073330;28;20230;-67
2023/05/15 13:58:41;;;;;;;4.97;4.37;;;;;;;;;;5079200;28;20201;-67
2023/05/15 14:01:08;;;;;;;4.90;4.40;;;;;;;;;;5077361;28;20234;-66
2023/05/15 14:03:36;;;;;;;5.90;4.73;;;;;;;;;;5068601;28;20214;-67
2023/05/15 14:06:04;;;;;;;5.53;4.57;;;;;;;;;;5077055;28;20226;-66
2023/05/15 14:08:34;;;;;;;5.57;4.50;;;;;;;;;;5074690;28;20212;-67
2023/05/15 14:11:01;;;;;;;4.73;4.27;;;;;;;;;;5077252;28;20248;-66
2023/05/15 14:13:30;;;;;;;5.60;4.73;;;;;;;;;;5077708;28;20213;-63
2023/05/15 14:15:58;;;;;;;4.80;4.40;;;;;;;;;;5068650;28;20226;-63
2023/05/15 14:18:25;;;;;;;6.00;4.60;;;;;;;;;;5078335;28;20202;-62
2023/05/15 14:20:53;;;;;;;6.13;5.17;;;;;;;;;;5078373;28;20209;-64
2023/05/15 14:23:21;;;;;;;7.40;4.40;;;;;;;;;;5077782;28;20206;-63
2023/05/15 14:25:50;;;;;;;5.47;5.00;;;;;;;;;;5077923;28;20245;-64
2023/05/15 14:28:17;;;;;;;7.03;4.70;;;;;;;;;;5077552;28;20241;-64
2023/05/15 14:30:45;;;;;;;6.63;4.20;;;;;;;;;;5078228;28;20205;-66
2023/05/15 14:33:13;;;;;;;4.83;4.33;;;;;;;;;;5078081;28;20217;-66
2023/05/15 14:35:40;;;;;;;8.73;4.20;;;;;;;;;;5077890;28;20234;-66